Time;durP1;ratioP1;P1;durP2;ratioP2;P2;SDS_P1;SDS_P2;PMS_P1;PMS_P2;Temp;Humidity;BMP_temperature;BMP_pressure;BME280_temperature;BME280_humidity;BME280_pressure;Samples;Min_cycle;Max_cycle;Signal;HPM_P1;HPM_P2
2022/06/24 00:02:57;;;;;;;5.78;2.65;;;;;;;;;;10308629;28;20217;-56
2022/06/24 00:07:58;;;;;;;4.30;2.03;;;;;;;;;;10302211;28;20114;-53
2022/06/24 00:13:00;;;;;;;5.30;2.28;;;;;;;;;;10316738;28;20533;-57
2022/06/24 00:18:18;;;;;;;7.57;2.00;;;;;;;;;;10312229;28;20565;-56
2022/06/24 00:23:21;;;;;;;6.50;2.00;;;;;;;;;;10306479;28;20065;-52
2022/06/24 00:28:25;;;;;;;7.75;2.30;;;;;;;;;;10308867;28;20030;-54
2022/06/24 00:33:33;;;;;;;4.22;2.10;;;;;;;;;;10298879;28;20427;-52
2022/06/24 00:38:37;;;;;;;4.68;1.92;;;;;;;;;;10309625;28;20038;-53
2022/06/24 00:43:53;;;;;;;5.07;2.17;;;;;;;;;;10300459;28;20069;-49
2022/06/24 00:48:59;;;;;;;4.22;1.95;;;;;;;;;;10299846;28;20118;-50
2022/06/24 00:54:08;;;;;;;4.60;2.13;;;;;;;;;;10307328;28;20038;-53
2022/06/24 00:59:09;;;;;;;2.08;1.63;;;;;;;;;;10323648;28;20034;-52
2022/06/24 01:04:14;;;;;;;3.75;2.08;;;;;;;;;;10306012;28;20386;-53
2022/06/24 01:09:19;;;;;;;6.93;2.17;;;;;;;;;;10297999;28;20027;-55
2022/06/24 01:14:20;;;;;;;2.38;1.75;;;;;;;;;;10300091;28;20034;-57
2022/06/24 01:19:20;;;;;;;3.88;1.50;;;;;;;;;;10290768;28;20026;-60
2022/06/24 01:24:24;;;;;;;7.65;2.03;;;;;;;;;;10312771;28;20023;-57
2022/06/24 01:29:25;;;;;;;4.03;1.95;;;;;;;;;;10321699;28;20125;-52
2022/06/24 01:34:26;;;;;;;2.75;1.60;;;;;;;;;;10311021;28;20125;-57
2022/06/24 01:39:27;;;;;;;2.95;1.70;;;;;;;;;;10305634;28;20034;-61
2022/06/24 01:44:28;;;;;;;2.97;1.48;;;;;;;;;;10304379;28;20047;-57
2022/06/24 01:49:29;;;;;;;3.67;1.67;;;;;;;;;;10296495;28;20038;-52
2022/06/24 01:54:29;;;;;;;3.67;1.60;;;;;;;;;;10306342;28;20026;-50
2022/06/24 01:59:30;;;;;;;5.88;1.70;;;;;;;;;;10324769;28;20037;-57
2022/06/24 02:04:31;;;;;;;3.47;1.60;;;;;;;;;;10298354;28;20037;-59
2022/06/24 02:13:26;;;;;;;3.17;1.75;;;;;;;;;;10295070;28;20031;-57
2022/06/24 02:14:52;;;;;;;2.83;1.60;;;;;;;;;;10307423;28;20120;-53
2022/06/24 02:19:52;;;;;;;4.95;1.98;;;;;;;;;;10295374;28;20102;-57
2022/06/24 02:24:53;;;;;;;6.00;1.73;;;;;;;;;;10304494;28;20019;-50
2022/06/24 02:29:54;;;;;;;6.55;1.73;;;;;;;;;;10307937;28;20037;-50
2022/06/24 02:34:54;;;;;;;2.33;1.50;;;;;;;;;;10294552;28;20082;-52
2022/06/24 02:39:55;;;;;;;2.65;1.60;;;;;;;;;;10289822;28;20041;-52
2022/06/24 02:44:55;;;;;;;4.00;1.77;;;;;;;;;;10312777;28;20043;-53
2022/06/24 02:49:56;;;;;;;4.78;1.48;;;;;;;;;;10302743;28;20030;-58
2022/06/24 02:54:57;;;;;;;1.50;1.40;;;;;;;;;;10327532;28;20062;-56
2022/06/24 02:59:57;;;;;;;4.05;1.15;;;;;;;;;;10303292;28;20030;-54
2022/06/24 03:04:58;;;;;;;4.35;1.42;;;;;;;;;;10320796;28;20478;-54
2022/06/24 03:09:58;;;;;;;3.03;1.45;;;;;;;;;;10294193;28;20055;-59
2022/06/24 03:14:59;;;;;;;2.45;1.50;;;;;;;;;;10305982;28;20041;-54
2022/06/24 03:20:00;;;;;;;1.95;1.42;;;;;;;;;;10293513;28;20406;-54
2022/06/24 03:25:01;;;;;;;1.30;1.20;;;;;;;;;;10306480;28;20066;-55
2022/06/24 03:30:04;;;;;;;2.67;1.25;;;;;;;;;;10292232;28;20090;-55
2022/06/24 03:35:06;;;;;;;2.03;1.17;;;;;;;;;;10304576;28;20065;-57
2022/06/24 03:40:08;;;;;;;2.83;1.50;;;;;;;;;;10313907;28;20061;-50
2022/06/24 03:45:09;;;;;;;12.75;1.50;;;;;;;;;;10313694;28;20051;-57
2022/06/24 03:50:10;;;;;;;4.13;1.70;;;;;;;;;;10307143;28;20038;-52
2022/06/24 03:55:10;;;;;;;3.92;1.40;;;;;;;;;;10326803;28;20037;-56
2022/06/24 04:00:11;;;;;;;10.18;1.58;;;;;;;;;;10308497;28;20076;-50
2022/06/24 04:05:14;;;;;;;4.20;1.48;;;;;;;;;;10302166;28;20051;-54
2022/06/24 04:10:15;;;;;;;1.58;1.38;;;;;;;;;;10297480;28;20046;-58
2022/06/24 04:15:17;;;;;;;7.30;1.52;;;;;;;;;;10300787;28;20030;-58
2022/06/24 04:20:18;;;;;;;4.57;1.30;;;;;;;;;;10310114;28;20114;-56
2022/06/24 04:25:19;;;;;;;8.75;1.40;;;;;;;;;;10300054;28;20110;-53
2022/06/24 04:30:19;;;;;;;1.85;1.48;;;;;;;;;;10288483;28;20033;-56
2022/06/24 04:35:20;;;;;;;5.93;1.30;;;;;;;;;;10300059;28;20386;-54
2022/06/24 04:40:21;;;;;;;8.50;1.65;;;;;;;;;;10315864;28;20038;-55
2022/06/24 04:45:21;;;;;;;6.65;1.33;;;;;;;;;;10293511;28;20043;-56
2022/06/24 04:50:22;;;;;;;2.55;1.60;;;;;;;;;;10293398;28;20205;-56
2022/06/24 04:55:23;;;;;;;1.75;1.20;;;;;;;;;;10284705;28;20031;-56
2022/06/24 05:00:24;;;;;;;4.85;1.38;;;;;;;;;;10290202;28;20053;-55
2022/06/24 05:05:24;;;;;;;6.68;1.33;;;;;;;;;;10319610;28;20491;-56
2022/06/24 05:10:32;;;;;;;4.00;1.88;;;;;;;;;;10303240;28;20108;-59
2022/06/24 05:15:33;;;;;;;9.40;1.83;;;;;;;;;;10309018;28;20497;-55
2022/06/24 05:20:34;;;;;;;4.05;1.20;;;;;;;;;;10290476;28;20018;-56
2022/06/24 05:25:34;;;;;;;4.15;1.48;;;;;;;;;;10299348;28;20031;-53
2022/06/24 05:30:35;;;;;;;2.83;1.40;;;;;;;;;;10312456;28;20031;-53
2022/06/24 05:35:36;;;;;;;15.82;3.50;;;;;;;;;;10319048;28;20023;-58
2022/06/24 05:40:37;;;;;;;10.57;3.40;;;;;;;;;;10312464;28;20038;-54
2022/06/24 05:45:37;;;;;;;9.55;4.60;;;;;;;;;;10311668;28;20399;-55
2022/06/24 05:50:38;;;;;;;14.18;4.63;;;;;;;;;;10328390;28;20038;-54
2022/06/24 05:55:39;;;;;;;15.55;4.28;;;;;;;;;;10321753;28;20062;-58
2022/06/24 06:00:39;;;;;;;16.90;4.85;;;;;;;;;;10318582;28;20478;-54
2022/06/24 06:05:40;;;;;;;17.55;4.50;;;;;;;;;;10306053;28;20027;-58
2022/06/24 06:10:43;;;;;;;22.17;3.95;;;;;;;;;;10294144;28;20485;-55
2022/06/24 06:15:45;;;;;;;20.27;4.28;;;;;;;;;;10306803;28;20026;-56
2022/06/24 06:20:46;;;;;;;16.92;3.53;;;;;;;;;;10327895;28;20058;-57
2022/06/24 06:25:46;;;;;;;17.58;3.97;;;;;;;;;;10322419;28;20122;-55
2022/06/24 06:30:47;;;;;;;16.20;4.65;;;;;;;;;;10317561;28;20026;-57
2022/06/24 06:35:47;;;;;;;27.58;4.20;;;;;;;;;;10317700;28;20027;-55
2022/06/24 06:40:48;;;;;;;10.85;4.45;;;;;;;;;;10317005;28;20034;-57
2022/06/24 06:45:48;;;;;;;15.48;4.00;;;;;;;;;;10323001;28;20051;-57
2022/06/24 06:50:57;;;;;;;11.65;4.32;;;;;;;;;;10315260;28;20034;-56
2022/06/24 06:55:57;;;;;;;11.63;4.28;;;;;;;;;;10322239;28;20030;-58
2022/06/24 07:00:58;;;;;;;12.73;4.13;;;;;;;;;;10325267;28;20173;-58
2022/06/24 07:05:59;;;;;;;15.98;5.03;;;;;;;;;;10305184;28;20023;-58
2022/06/24 07:10:59;;;;;;;8.10;3.72;;;;;;;;;;10317968;28;20545;-58
2022/06/24 07:16:00;;;;;;;14.70;4.75;;;;;;;;;;10323667;28;20378;-58
2022/06/24 07:21:00;;;;;;;10.25;4.03;;;;;;;;;;10321840;28;20034;-57
2022/06/24 07:26:01;;;;;;;11.23;4.68;;;;;;;;;;10326473;28;20026;-57
2022/06/24 07:31:15;;;;;;;13.48;4.20;;;;;;;;;;10305310;28;20034;-57
2022/06/24 07:36:16;;;;;;;15.30;4.75;;;;;;;;;;10306238;28;20644;-55
2022/06/24 07:41:16;;;;;;;13.48;4.40;;;;;;;;;;10320424;28;20037;-55
2022/06/24 07:46:17;;;;;;;13.43;4.82;;;;;;;;;;10309886;28;20061;-58
2022/06/24 07:51:19;;;;;;;14.50;5.75;;;;;;;;;;10317889;28;20038;-53
2022/06/24 08:01:39;;;;;;;15.95;5.68;;;;;;;;;;10324131;28;20027;-56
2022/06/24 08:06:46;;;;;;;13.10;5.10;;;;;;;;;;10319945;28;20494;-58
2022/06/24 08:11:47;;;;;;;17.23;6.18;;;;;;;;;;10300136;28;20030;-55
2022/06/24 08:16:48;;;;;;;19.70;5.60;;;;;;;;;;10314887;28;20085;-52
2022/06/24 08:21:49;;;;;;;18.90;5.40;;;;;;;;;;10307829;28;20663;-56
2022/06/24 08:26:50;;;;;;;27.10;6.90;;;;;;;;;;10305347;28;20749;-55
2022/06/24 08:31:50;;;;;;;45.35;8.25;;;;;;;;;;10297207;28;20478;-57
2022/06/24 08:36:51;;;;;;;37.00;8.02;;;;;;;;;;10311724;28;20035;-57
2022/06/24 08:41:57;;;;;;;40.42;8.23;;;;;;;;;;10316129;28;20023;-57
2022/06/24 08:46:58;;;;;;;32.63;7.78;;;;;;;;;;10316846;28;20042;-57
2022/06/24 08:52:01;;;;;;;23.35;7.35;;;;;;;;;;10301942;28;20027;-57
2022/06/24 08:57:01;;;;;;;23.30;7.43;;;;;;;;;;10306348;28;20109;-55
2022/06/24 09:02:02;;;;;;;25.67;6.55;;;;;;;;;;10311558;28;20041;-57
2022/06/24 09:07:03;;;;;;;28.13;6.85;;;;;;;;;;10315657;28;20038;-54
2022/06/24 09:12:04;;;;;;;23.75;7.10;;;;;;;;;;10311814;28;20026;-56
2022/06/24 09:17:06;;;;;;;33.03;7.45;;;;;;;;;;10321091;28;20470;-55
2022/06/24 09:22:07;;;;;;;21.13;6.70;;;;;;;;;;10327076;28;20030;-54
2022/06/24 09:27:08;;;;;;;15.88;6.50;;;;;;;;;;10321046;28;20026;-56
2022/06/24 09:32:10;;;;;;;23.98;7.15;;;;;;;;;;10318765;28;20485;-55
2022/06/24 09:37:10;;;;;;;27.08;6.63;;;;;;;;;;10321673;28;20041;-57
2022/06/24 09:42:19;;;;;;;19.48;5.90;;;;;;;;;;10315986;28;20022;-55
2022/06/24 09:47:23;;;;;;;18.20;6.07;;;;;;;;;;10309532;28;20125;-56
2022/06/24 09:52:25;;;;;;;19.17;6.45;;;;;;;;;;10307738;28;20065;-53
2022/06/24 09:57:26;;;;;;;23.45;6.35;;;;;;;;;;10310257;28;20027;-54
2022/06/24 10:02:28;;;;;;;20.63;6.07;;;;;;;;;;10300218;28;20356;-53
2022/06/24 10:07:34;;;;;;;19.77;6.80;;;;;;;;;;10307304;28;20069;-55
2022/06/24 10:12:41;;;;;;;22.10;6.40;;;;;;;;;;10318739;28;20374;-55
2022/06/24 10:17:44;;;;;;;18.33;5.85;;;;;;;;;;10313912;28;20395;-54
2022/06/24 10:22:49;;;;;;;20.05;6.25;;;;;;;;;;10302364;28;20497;-53
2022/06/24 10:27:59;;;;;;;18.73;5.20;;;;;;;;;;10319384;28;20058;-55
2022/06/24 10:33:13;;;;;;;21.33;5.88;;;;;;;;;;10297155;28;20065;-56
2022/06/24 10:38:13;;;;;;;17.02;5.13;;;;;;;;;;10293724;28;20043;-56
2022/06/24 10:43:31;;;;;;;18.63;4.97;;;;;;;;;;10311035;28;20042;-55
2022/06/24 10:48:44;;;;;;;21.15;5.15;;;;;;;;;;10323492;28;20593;-55
2022/06/24 10:54:02;;;;;;;16.73;4.75;;;;;;;;;;10315850;28;20121;-56
2022/06/24 10:59:03;;;;;;;19.20;5.00;;;;;;;;;;10312094;28;20449;-55
2022/06/24 11:04:05;;;;;;;18.90;4.63;;;;;;;;;;10307913;28;20026;-57
2022/06/24 11:09:09;;;;;;;17.13;4.63;;;;;;;;;;10316701;28;20026;-55
2022/06/24 11:14:26;;;;;;;21.15;4.35;;;;;;;;;;10298786;28;20030;-53
2022/06/24 11:19:27;;;;;;;19.65;4.70;;;;;;;;;;10305871;28;20033;-55
2022/06/24 11:24:28;;;;;;;20.50;5.03;;;;;;;;;;10302111;28;20597;-55
2022/06/24 11:29:52;;;;;;;10.77;4.05;;;;;;;;;;10306012;28;20067;-54
2022/06/24 11:34:52;;;;;;;15.48;3.83;;;;;;;;;;10303346;28;20035;-56
2022/06/24 11:39:58;;;;;;;14.55;3.83;;;;;;;;;;10303453;28;20041;-55
2022/06/24 11:44:58;;;;;;;17.15;4.03;;;;;;;;;;10297504;28;20134;-54
2022/06/24 11:49:59;;;;;;;19.55;4.35;;;;;;;;;;10310867;28;20038;-52
2022/06/24 11:54:59;;;;;;;19.02;3.60;;;;;;;;;;10317214;28;20027;-53
2022/06/24 12:00:00;;;;;;;20.73;3.92;;;;;;;;;;10318744;28;20045;-56
2022/06/24 12:05:01;;;;;;;12.70;3.38;;;;;;;;;;10308811;28;20041;-56
2022/06/24 12:10:02;;;;;;;10.98;2.88;;;;;;;;;;10321168;28;20128;-57
2022/06/24 12:15:03;;;;;;;11.93;2.72;;;;;;;;;;10323146;28;20026;-56
2022/06/24 12:20:05;;;;;;;13.45;2.55;;;;;;;;;;10324005;28;20108;-56
2022/06/24 12:25:10;;;;;;;13.00;3.05;;;;;;;;;;10320340;28;20033;-56
2022/06/24 12:30:21;;;;;;;9.85;2.45;;;;;;;;;;10319950;28;20494;-55
2022/06/24 12:35:39;;;;;;;21.35;2.40;;;;;;;;;;10299005;28;20033;-53
2022/06/24 12:40:40;;;;;;;12.02;3.13;;;;;;;;;;10314259;28;20037;-55
2022/06/24 12:45:43;;;;;;;14.90;2.67;;;;;;;;;;10313897;28;20123;-57
2022/06/24 12:50:44;;;;;;;18.30;2.85;;;;;;;;;;10311036;28;20085;-54
2022/06/24 12:55:44;;;;;;;17.00;2.75;;;;;;;;;;10300196;28;20101;-54
2022/06/24 13:00:45;;;;;;;11.18;2.75;;;;;;;;;;10308528;28;20034;-54
2022/06/24 13:05:47;;;;;;;16.15;2.92;;;;;;;;;;10313079;28;20037;-57
2022/06/24 13:10:48;;;;;;;18.00;3.22;;;;;;;;;;10305031;28;20418;-54
2022/06/24 13:15:49;;;;;;;17.40;3.25;;;;;;;;;;10317846;28;20041;-52
2022/06/24 13:20:50;;;;;;;16.63;3.00;;;;;;;;;;10320826;28;20080;-53
2022/06/24 13:25:50;;;;;;;8.90;2.83;;;;;;;;;;10299564;28;20082;-53
2022/06/24 13:30:51;;;;;;;23.35;3.10;;;;;;;;;;10319129;28;20585;-55
2022/06/24 13:35:53;;;;;;;17.15;2.80;;;;;;;;;;10316703;28;20110;-55
2022/06/24 13:40:53;;;;;;;11.25;2.55;;;;;;;;;;10311280;28;20126;-52
2022/06/24 13:45:54;;;;;;;12.90;2.88;;;;;;;;;;10308648;28;20519;-55
2022/06/24 13:50:54;;;;;;;15.02;3.05;;;;;;;;;;10316286;28;20030;-53
2022/06/24 13:55:55;;;;;;;12.95;2.45;;;;;;;;;;10318273;28;20030;-56
2022/06/24 14:00:56;;;;;;;14.77;2.88;;;;;;;;;;10305881;28;20030;-55
2022/06/24 14:05:59;;;;;;;13.82;2.88;;;;;;;;;;10313055;28;20039;-55
2022/06/24 14:11:00;;;;;;;11.73;2.58;;;;;;;;;;10316832;28;20027;-58
2022/06/24 14:16:00;;;;;;;8.75;2.75;;;;;;;;;;10298752;28;20046;-56
2022/06/24 14:21:03;;;;;;;10.00;2.42;;;;;;;;;;10308684;28;20038;-55
2022/06/24 14:26:04;;;;;;;12.73;2.58;;;;;;;;;;10303546;28;20027;-54
2022/06/24 14:31:04;;;;;;;13.30;2.90;;;;;;;;;;10303824;28;20030;-54
2022/06/24 14:36:05;;;;;;;14.70;2.70;;;;;;;;;;10314771;28;20054;-54
2022/06/24 14:41:05;;;;;;;16.20;2.88;;;;;;;;;;10325682;28;20029;-54
2022/06/24 14:46:06;;;;;;;14.85;3.03;;;;;;;;;;10314565;28;20042;-54
2022/06/24 14:51:07;;;;;;;17.02;3.17;;;;;;;;;;10291997;28;20459;-56
2022/06/24 14:56:07;;;;;;;9.77;2.42;;;;;;;;;;10328711;28;20038;-55
2022/06/24 15:01:08;;;;;;;12.13;2.40;;;;;;;;;;10318878;28;20030;-57
2022/06/24 15:06:09;;;;;;;11.70;2.20;;;;;;;;;;10305164;28;20534;-54
2022/06/24 15:11:09;;;;;;;9.75;2.10;;;;;;;;;;10323121;28;20041;-55
2022/06/24 15:16:10;;;;;;;14.00;2.90;;;;;;;;;;10315210;28;20054;-54
2022/06/24 15:21:10;;;;;;;7.28;2.20;;;;;;;;;;10319957;28;20042;-57
2022/06/24 15:26:11;;;;;;;8.88;2.10;;;;;;;;;;10310412;28;20030;-53
2022/06/24 15:31:12;;;;;;;13.38;2.25;;;;;;;;;;10299068;28;20037;-54
2022/06/24 15:36:13;;;;;;;20.13;2.60;;;;;;;;;;10316062;28;20038;-51
2022/06/24 15:41:16;;;;;;;21.08;3.45;;;;;;;;;;10298388;28;20031;-54
2022/06/24 15:46:18;;;;;;;28.52;3.45;;;;;;;;;;10299610;28;20122;-53
2022/06/24 15:51:19;;;;;;;16.50;3.15;;;;;;;;;;10301860;28;20114;-55
2022/06/24 15:56:20;;;;;;;11.38;2.22;;;;;;;;;;10300693;28;20474;-57
2022/06/24 16:01:21;;;;;;;14.75;3.10;;;;;;;;;;10307270;28;20015;-58
2022/06/24 16:06:22;;;;;;;13.25;2.53;;;;;;;;;;10292996;28;20026;-58
2022/06/24 16:11:22;;;;;;;25.38;2.47;;;;;;;;;;10322462;28;20027;-57
2022/06/24 16:16:24;;;;;;;18.63;2.42;;;;;;;;;;10311044;28;20030;-58
2022/06/24 16:21:25;;;;;;;7.07;2.08;;;;;;;;;;10304516;28;20109;-58
2022/06/24 16:31:46;;;;;;;10.68;2.45;;;;;;;;;;10292307;28;20034;-58
2022/06/24 16:36:47;;;;;;;9.95;1.80;;;;;;;;;;10311334;28;20398;-57
2022/06/24 16:41:48;;;;;;;8.27;2.20;;;;;;;;;;10325452;28;20029;-58
2022/06/24 16:46:48;;;;;;;13.07;1.73;;;;;;;;;;10319067;28;20038;-57
2022/06/24 16:51:49;;;;;;;8.13;1.92;;;;;;;;;;10320926;28;20113;-57
2022/06/24 16:56:49;;;;;;;12.32;2.20;;;;;;;;;;10304647;28;20037;-57
2022/06/24 17:01:50;;;;;;;5.45;1.65;;;;;;;;;;10311462;28;20039;-56
2022/06/24 17:06:50;;;;;;;11.30;2.35;;;;;;;;;;10316628;28;20038;-56
2022/06/24 17:11:51;;;;;;;8.43;1.88;;;;;;;;;;10310832;28;20169;-57
2022/06/24 17:16:52;;;;;;;9.38;2.10;;;;;;;;;;10298727;28;20030;-57
2022/06/24 17:21:52;;;;;;;10.40;2.05;;;;;;;;;;10314212;28;20475;-57
2022/06/24 17:26:53;;;;;;;11.43;2.47;;;;;;;;;;10308845;28;20386;-57
2022/06/24 17:31:54;;;;;;;11.55;1.90;;;;;;;;;;10311300;28;20050;-57
2022/06/24 17:36:54;;;;;;;5.50;1.63;;;;;;;;;;10303659;28;20080;-56
2022/06/24 17:41:55;;;;;;;10.95;1.85;;;;;;;;;;10316455;28;20035;-54
2022/06/24 17:46:56;;;;;;;13.82;1.85;;;;;;;;;;10313009;28;20501;-56
2022/06/24 17:51:56;;;;;;;10.50;2.47;;;;;;;;;;10309084;28;20039;-55
2022/06/24 17:56:57;;;;;;;9.48;2.03;;;;;;;;;;10309624;28;20532;-53
2022/06/24 18:01:58;;;;;;;9.52;2.20;;;;;;;;;;10309775;28;20033;-57
2022/06/24 18:06:59;;;;;;;7.30;1.88;;;;;;;;;;10303011;28;20035;-54
2022/06/24 18:12:03;;;;;;;6.85;1.98;;;;;;;;;;10300063;28;20034;-56
2022/06/24 18:17:04;;;;;;;11.13;1.88;;;;;;;;;;10321961;28;20026;-55
2022/06/24 18:22:04;;;;;;;7.53;2.17;;;;;;;;;;10316168;28;20057;-56
2022/06/24 18:27:05;;;;;;;6.70;1.95;;;;;;;;;;10337987;28;20514;-58
2022/06/24 18:32:07;;;;;;;7.47;1.65;;;;;;;;;;10314509;28;20042;-57
2022/06/24 18:37:07;;;;;;;9.10;1.98;;;;;;;;;;10315804;28;20517;-52
2022/06/24 18:42:08;;;;;;;5.88;2.28;;;;;;;;;;10326988;28;20042;-55
2022/06/24 18:47:08;;;;;;;10.00;1.70;;;;;;;;;;10321437;28;20054;-54
2022/06/24 18:52:09;;;;;;;7.93;1.77;;;;;;;;;;10309630;28;20042;-53
2022/06/24 18:57:10;;;;;;;7.70;1.75;;;;;;;;;;10299088;28;20027;-56
2022/06/24 19:02:11;;;;;;;16.35;2.08;;;;;;;;;;10314159;28;20045;-58
2022/06/24 19:07:12;;;;;;;8.52;1.50;;;;;;;;;;10308110;28;20036;-56
2022/06/24 19:12:13;;;;;;;5.43;1.70;;;;;;;;;;10307141;28;20470;-57
2022/06/24 19:17:13;;;;;;;7.15;2.30;;;;;;;;;;10318285;28;20033;-57
2022/06/24 19:22:15;;;;;;;6.18;2.05;;;;;;;;;;10296226;28;20035;-57
2022/06/24 19:27:16;;;;;;;5.93;1.90;;;;;;;;;;10311664;28;20022;-58
2022/06/24 19:32:18;;;;;;;8.15;2.30;;;;;;;;;;10304477;28;20501;-57
2022/06/24 19:37:19;;;;;;;3.42;1.60;;;;;;;;;;10310689;28;20033;-58
2022/06/24 19:42:19;;;;;;;8.48;2.20;;;;;;;;;;10309841;28;20023;-55
2022/06/24 19:47:20;;;;;;;6.93;1.77;;;;;;;;;;10311736;28;20041;-54
2022/06/24 19:52:21;;;;;;;8.82;1.90;;;;;;;;;;10320420;28;20109;-55
2022/06/24 19:57:21;;;;;;;14.77;2.33;;;;;;;;;;10286792;28;20035;-57
2022/06/24 20:07:41;;;;;;;9.35;2.30;;;;;;;;;;10320387;28;20027;-57
2022/06/24 20:12:42;;;;;;;14.43;2.20;;;;;;;;;;10314497;28;20497;-57
2022/06/24 20:17:42;;;;;;;10.02;1.90;;;;;;;;;;10314070;28;20031;-51
2022/06/24 20:22:48;;;;;;;11.45;2.15;;;;;;;;;;10312132;28;20146;-57
2022/06/24 20:27:49;;;;;;;18.55;2.10;;;;;;;;;;10314614;28;20121;-55
2022/06/24 20:32:50;;;;;;;9.40;2.45;;;;;;;;;;10300320;28;20035;-57
2022/06/24 20:37:51;;;;;;;11.75;1.88;;;;;;;;;;10313272;28;20027;-56
2022/06/24 20:42:51;;;;;;;10.57;2.20;;;;;;;;;;10293046;28;20042;-54
2022/06/24 20:47:52;;;;;;;8.95;2.10;;;;;;;;;;10320787;28;20030;-57
2022/06/24 20:52:53;;;;;;;7.18;2.28;;;;;;;;;;10303041;28;20109;-55
2022/06/24 20:57:53;;;;;;;6.70;1.95;;;;;;;;;;10313266;28;20022;-57
2022/06/24 21:02:54;;;;;;;14.13;2.60;;;;;;;;;;10311156;28;20502;-57
2022/06/24 21:07:54;;;;;;;12.25;2.65;;;;;;;;;;10314699;28;20030;-55
2022/06/24 21:12:55;;;;;;;8.80;2.35;;;;;;;;;;10306949;28;20058;-56
2022/06/24 21:17:56;;;;;;;4.88;1.92;;;;;;;;;;10304367;28;20065;-56
2022/06/24 21:22:56;;;;;;;9.70;2.97;;;;;;;;;;10323625;28;20038;-57
2022/06/24 21:27:57;;;;;;;6.90;2.05;;;;;;;;;;10303697;28;20502;-56
2022/06/24 21:32:57;;;;;;;7.13;1.58;;;;;;;;;;10338764;28;20042;-56
2022/06/24 21:37:58;;;;;;;3.97;1.63;;;;;;;;;;10316842;28;20029;-56
2022/06/24 21:42:59;;;;;;;9.82;1.90;;;;;;;;;;10314016;28;20050;-54
2022/06/24 21:48:00;;;;;;;4.35;1.75;;;;;;;;;;10329703;28;20540;-54
2022/06/24 21:53:01;;;;;;;12.38;1.90;;;;;;;;;;10324074;28;20087;-53
2022/06/24 21:58:02;;;;;;;5.45;1.98;;;;;;;;;;10303718;28;20046;-54
2022/06/24 22:03:02;;;;;;;6.03;1.70;;;;;;;;;;10328404;28;20037;-55
2022/06/24 22:08:21;;;;;;;5.30;1.73;;;;;;;;;;10334156;28;20026;-56
2022/06/24 22:13:22;;;;;;;10.75;2.00;;;;;;;;;;10334443;28;20513;-55
2022/06/24 22:18:23;;;;;;;4.28;1.83;;;;;;;;;;10333642;28;20480;-55
2022/06/24 22:23:25;;;;;;;6.60;1.98;;;;;;;;;;10330480;28;20019;-55
2022/06/24 22:28:25;;;;;;;6.70;1.95;;;;;;;;;;10316302;28;20022;-56
2022/06/24 22:33:26;;;;;;;5.68;1.50;;;;;;;;;;10314580;28;20034;-55
2022/06/24 22:38:27;;;;;;;7.47;2.17;;;;;;;;;;10307046;28;20022;-55
2022/06/24 22:43:27;;;;;;;2.97;1.52;;;;;;;;;;10318746;28;20042;-55
2022/06/24 22:48:28;;;;;;;2.53;1.45;;;;;;;;;;10313487;28;20378;-55
2022/06/24 22:53:29;;;;;;;5.38;1.80;;;;;;;;;;10324471;28;20026;-54
2022/06/24 22:58:30;;;;;;;8.85;2.13;;;;;;;;;;10326355;28;20026;-56
2022/06/24 23:03:30;;;;;;;6.32;2.13;;;;;;;;;;10328125;28;20486;-59
2022/06/24 23:08:31;;;;;;;8.60;1.75;;;;;;;;;;10323280;28;20524;-57
2022/06/24 23:13:32;;;;;;;5.07;1.70;;;;;;;;;;10306078;28;20031;-58
2022/06/24 23:18:32;;;;;;;7.63;2.45;;;;;;;;;;10310786;28;20019;-59
2022/06/24 23:23:33;;;;;;;10.57;2.50;;;;;;;;;;10311375;28;20381;-60
2022/06/24 23:28:34;;;;;;;10.13;2.65;;;;;;;;;;10327663;28;20381;-58
2022/06/24 23:33:34;;;;;;;13.05;2.78;;;;;;;;;;10312843;28;20045;-60
2022/06/24 23:38:35;;;;;;;15.30;2.50;;;;;;;;;;10310977;28;20030;-61
2022/06/24 23:43:36;;;;;;;6.40;2.45;;;;;;;;;;10314932;28;20054;-57
2022/06/24 23:53:57;;;;;;;11.15;2.40;;;;;;;;;;10312714;28;20030;-57
2022/06/24 23:58:58;;;;;;;8.43;2.00;;;;;;;;;;10288078;28;20470;-55
